createdAt,value
2018-03-11T00:00:05.636Z,0.00
2018-03-11T00:01:05.596Z,0.00
2018-03-11T00:02:05.593Z,0.00
2018-03-11T00:03:05.571Z,0.00
2018-03-11T00:04:05.563Z,0.00
2018-03-11T00:05:05.571Z,0.00
2018-03-11T00:06:06.389Z,0.00
2018-03-11T00:07:05.526Z,0.00
2018-03-11T00:08:05.525Z,0.00
2018-03-11T00:09:05.511Z,0.00
2018-03-11T00:10:05.565Z,0.00
2018-03-11T00:11:05.525Z,0.00
2018-03-11T00:12:05.473Z,0.00
2018-03-11T00:13:05.462Z,0.00
2018-03-11T00:14:05.449Z,0.00
2018-03-11T00:15:05.440Z,0.00
2018-03-11T00:16:05.493Z,0.00
2018-03-11T00:17:05.413Z,0.00
2018-03-11T00:18:05.408Z,0.00
2018-03-11T00:19:05.394Z,0.00
2018-03-11T00:20:05.385Z,0.00
2018-03-11T00:21:05.368Z,0.00
2018-03-11T00:22:05.415Z,0.00
2018-03-11T00:23:05.346Z,0.00
2018-03-11T00:24:05.342Z,0.00
2018-03-11T00:25:05.320Z,0.00
2018-03-11T00:26:05.317Z,0.00
2018-03-11T00:27:05.342Z,0.00
2018-03-11T00:28:05.300Z,0.00
2018-03-11T00:29:05.282Z,0.00
2018-03-11T00:30:05.264Z,0.00
2018-03-11T00:31:05.249Z,0.00
2018-03-11T00:32:05.251Z,0.00
2018-03-11T00:33:05.294Z,0.00
2018-03-11T00:34:05.245Z,0.00
2018-03-11T00:35:05.218Z,0.00
2018-03-11T00:36:05.212Z,0.00
2018-03-11T00:37:05.180Z,0.00
2018-03-11T00:38:05.189Z,0.00
2018-03-11T00:39:05.207Z,0.00
2018-03-11T00:40:05.169Z,0.00
2018-03-11T00:41:05.136Z,0.00
2018-03-11T00:42:05.138Z,0.00
2018-03-11T00:43:05.157Z,0.00
2018-03-11T00:44:05.109Z,0.00
2018-03-11T00:45:05.159Z,0.00
2018-03-11T00:46:05.100Z,0.00
2018-03-11T00:47:05.104Z,0.00
2018-03-11T00:48:05.057Z,0.00
2018-03-11T00:49:05.056Z,0.00
2018-03-11T00:50:05.056Z,0.00
2018-03-11T00:51:05.071Z,0.00
2018-03-11T00:52:05.033Z,0.00
2018-03-11T00:53:05.019Z,0.00
2018-03-11T00:54:04.997Z,0.00
2018-03-11T00:55:05.062Z,0.00
2018-03-11T00:56:04.990Z,0.00
2018-03-11T00:57:04.988Z,0.00
2018-03-11T00:58:04.962Z,0.00
2018-03-11T00:59:04.936Z,0.00
2018-03-11T01:00:04.963Z,0.00
2018-03-11T01:01:04.993Z,0.00
2018-03-11T01:02:04.909Z,0.00
2018-03-11T01:03:04.907Z,0.00
2018-03-11T01:04:04.884Z,0.00
2018-03-11T01:05:04.914Z,0.00
2018-03-11T01:06:04.879Z,0.00
2018-03-11T01:07:04.864Z,0.00
2018-03-11T01:08:04.883Z,0.00
2018-03-11T01:09:04.832Z,0.00
2018-03-11T01:10:04.861Z,0.00
2018-03-11T01:11:04.813Z,0.00
2018-03-11T01:12:04.806Z,0.00
2018-03-11T01:13:04.787Z,0.00
2018-03-11T01:14:04.845Z,0.00
2018-03-11T01:15:04.770Z,0.00
2018-03-11T01:16:04.742Z,0.00
2018-03-11T01:17:04.736Z,0.00
2018-03-11T01:18:04.760Z,0.00
2018-03-11T01:19:04.717Z,0.00
2018-03-11T01:20:04.883Z,0.00
2018-03-11T01:21:04.704Z,0.00
2018-03-11T01:22:04.692Z,0.00
2018-03-11T01:23:04.685Z,0.00
2018-03-11T01:24:04.665Z,0.00
2018-03-11T01:25:04.716Z,0.00
2018-03-11T01:26:04.638Z,0.00
2018-03-11T01:27:04.626Z,0.00
2018-03-11T01:28:04.628Z,0.00
2018-03-11T01:29:04.605Z,0.00
2018-03-11T01:30:04.601Z,0.00
2018-03-11T01:31:04.625Z,0.00
2018-03-11T01:32:04.613Z,0.00
2018-03-11T01:33:04.563Z,0.00
2018-03-11T01:34:04.571Z,0.00
2018-03-11T01:35:04.561Z,0.00
2018-03-11T01:36:05.416Z,0.00
2018-03-11T01:37:04.558Z,0.00
2018-03-11T01:38:04.548Z,0.00
2018-03-11T01:39:04.554Z,0.00
2018-03-11T01:40:05.372Z,0.00
2018-03-11T01:41:04.480Z,0.00
2018-03-11T01:42:04.512Z,0.00
2018-03-11T01:43:04.458Z,0.00
2018-03-11T01:44:04.430Z,0.00
2018-03-11T01:45:06.395Z,0.00
2018-03-11T01:46:06.369Z,0.00
2018-03-11T01:47:05.489Z,0.00
2018-03-11T01:48:04.421Z,0.00
2018-03-11T01:49:04.483Z,0.00
2018-03-11T01:50:04.403Z,0.00
2018-03-11T01:51:04.468Z,0.00
2018-03-11T01:52:04.517Z,0.00
2018-03-11T01:53:04.455Z,0.00
2018-03-11T01:54:04.333Z,0.00
2018-03-11T01:55:04.330Z,0.00
2018-03-11T01:56:04.328Z,0.00
2018-03-11T01:57:04.301Z,0.00
2018-03-11T01:58:04.869Z,0.00
2018-03-11T01:59:04.292Z,0.00
2018-03-11T02:00:04.326Z,0.00
2018-03-11T02:01:04.271Z,0.00
2018-03-11T02:02:04.241Z,0.00
2018-03-11T02:03:04.307Z,0.00
2018-03-11T02:04:04.536Z,0.00
2018-03-11T02:05:04.191Z,0.00
2018-03-11T02:06:04.261Z,0.00
2018-03-11T02:07:04.177Z,0.00
2018-03-11T02:08:04.184Z,0.00
2018-03-11T02:09:04.141Z,0.00
2018-03-11T02:10:04.143Z,0.00
2018-03-11T02:11:04.136Z,0.00
2018-03-11T02:12:04.128Z,0.00
2018-03-11T02:13:04.102Z,0.00
2018-03-11T02:14:04.135Z,0.00
2018-03-11T02:15:08.430Z,0.00
2018-03-11T02:16:04.079Z,0.00
2018-03-11T02:17:04.056Z,0.00
2018-03-11T02:18:04.130Z,0.00
2018-03-11T02:19:04.058Z,0.00
2018-03-11T02:20:04.038Z,0.00
2018-03-11T02:21:04.016Z,0.00
2018-03-11T02:22:04.006Z,0.00
2018-03-11T02:23:03.986Z,0.00
2018-03-11T02:24:03.998Z,0.00
2018-03-11T02:25:03.970Z,0.00
2018-03-11T02:26:04.004Z,0.00
2018-03-11T02:27:03.999Z,0.00
2018-03-11T02:28:03.936Z,0.00
2018-03-11T02:29:03.954Z,0.00
2018-03-11T02:30:03.905Z,0.00
2018-03-11T02:31:03.913Z,0.00
2018-03-11T02:32:03.889Z,0.00
2018-03-11T02:33:03.928Z,0.00
2018-03-11T02:34:03.885Z,0.00
2018-03-11T02:35:03.870Z,0.00
2018-03-11T02:36:03.841Z,0.00
2018-03-11T02:37:03.837Z,0.00
2018-03-11T02:38:03.838Z,0.00
2018-03-11T02:39:04.397Z,0.00
2018-03-11T02:40:03.804Z,0.00
2018-03-11T02:41:03.808Z,0.00
2018-03-11T02:42:04.377Z,0.00
2018-03-11T02:43:03.755Z,0.00
2018-03-11T02:44:03.833Z,0.00
2018-03-11T02:45:03.760Z,0.00
2018-03-11T02:46:03.733Z,0.00
2018-03-11T02:47:03.773Z,0.00
2018-03-11T02:48:03.722Z,0.00
2018-03-11T02:49:03.716Z,0.00
2018-03-11T02:50:03.688Z,0.00
2018-03-11T02:51:03.657Z,0.00
2018-03-11T02:52:03.649Z,0.00
2018-03-11T02:53:03.645Z,0.00
2018-03-11T02:54:04.366Z,0.00
2018-03-11T02:55:03.746Z,0.00
2018-03-11T02:56:03.629Z,0.00
2018-03-11T02:57:03.586Z,0.00
2018-03-11T02:58:03.587Z,0.00
2018-03-11T02:59:03.566Z,0.00
2018-03-11T03:00:03.564Z,0.00
2018-03-11T03:01:03.569Z,0.00
2018-03-11T03:02:03.530Z,0.00
2018-03-11T03:03:03.578Z,0.00
2018-03-11T03:04:03.518Z,0.00
2018-03-11T03:05:03.498Z,0.00
2018-03-11T03:06:03.508Z,0.00
2018-03-11T03:07:03.515Z,0.00
2018-03-11T03:08:03.467Z,0.00
2018-03-11T03:09:03.448Z,0.00
2018-03-11T03:10:03.434Z,0.00
2018-03-11T03:11:03.423Z,0.00
2018-03-11T03:12:03.453Z,0.00
2018-03-11T03:13:03.442Z,0.00
2018-03-11T03:14:03.391Z,0.00
2018-03-11T03:15:03.385Z,0.00
2018-03-11T03:16:03.371Z,0.00
2018-03-11T03:17:03.418Z,0.00
2018-03-11T03:18:03.347Z,0.00
2018-03-11T03:19:03.338Z,0.00
2018-03-11T03:20:03.312Z,0.00
2018-03-11T03:21:03.330Z,0.00
2018-03-11T03:22:03.362Z,0.00
2018-03-11T03:23:03.297Z,0.00
2018-03-11T03:24:03.267Z,0.00
2018-03-11T03:25:03.257Z,0.00
2018-03-11T03:26:03.271Z,0.00
2018-03-11T03:27:03.236Z,0.00
2018-03-11T03:28:03.255Z,0.00
2018-03-11T03:29:03.212Z,0.00
2018-03-11T03:30:03.204Z,0.00
2018-03-11T03:31:03.192Z,0.00
2018-03-11T03:32:03.203Z,0.00
2018-03-11T03:33:03.276Z,0.00
2018-03-11T03:34:03.199Z,0.00
2018-03-11T03:35:03.143Z,0.00
2018-03-11T03:36:03.148Z,0.00
2018-03-11T03:37:03.105Z,0.00
2018-03-11T03:38:03.115Z,0.00
2018-03-11T03:39:03.096Z,0.00
2018-03-11T03:40:03.072Z,0.00
2018-03-11T03:41:03.066Z,0.00
2018-03-11T03:42:03.077Z,0.00
2018-03-11T03:43:03.093Z,0.00
2018-03-11T03:44:03.043Z,0.00
2018-03-11T03:45:03.024Z,0.00
2018-03-11T03:46:02.990Z,0.00
2018-03-11T03:47:03.004Z,0.00
2018-03-11T03:48:02.974Z,0.00
2018-03-11T03:49:02.978Z,0.00
2018-03-11T03:50:02.956Z,0.00
2018-03-11T03:51:02.946Z,0.00
2018-03-11T03:52:02.937Z,0.00
2018-03-11T03:53:02.927Z,0.00
2018-03-11T03:54:02.938Z,0.00
2018-03-11T03:55:07.156Z,0.00
2018-03-11T03:56:02.886Z,0.00
2018-03-11T03:57:02.880Z,0.00
2018-03-11T03:58:02.892Z,0.00
2018-03-11T03:59:02.859Z,0.00
2018-03-11T04:00:02.832Z,0.00
2018-03-11T04:01:02.838Z,0.00
2018-03-11T04:02:02.813Z,0.00
2018-03-11T04:03:02.794Z,0.00
2018-03-11T04:04:02.779Z,0.00
2018-03-11T04:05:02.768Z,0.00
2018-03-11T04:06:02.779Z,0.00
2018-03-11T04:07:02.771Z,0.00
2018-03-11T04:08:02.726Z,0.00
2018-03-11T04:09:02.733Z,0.00
2018-03-11T04:10:02.705Z,0.00
2018-03-11T04:11:02.731Z,0.00
2018-03-11T04:12:02.674Z,0.00
2018-03-11T04:13:02.676Z,0.00
2018-03-11T04:14:02.649Z,0.00
2018-03-11T04:15:02.647Z,0.00
2018-03-11T04:16:02.718Z,0.00
2018-03-11T04:17:02.640Z,0.00
2018-03-11T04:18:02.609Z,0.00
2018-03-11T04:19:02.602Z,0.00
2018-03-11T04:20:02.614Z,0.00
2018-03-11T04:21:02.599Z,0.00
2018-03-11T04:22:02.918Z,0.00
2018-03-11T04:23:02.544Z,0.00
2018-03-11T04:24:02.531Z,0.00
2018-03-11T04:25:02.528Z,0.00
2018-03-11T04:26:02.505Z,0.00
2018-03-11T04:27:02.500Z,0.00
2018-03-11T04:28:02.517Z,0.00
2018-03-11T04:29:02.472Z,0.00
2018-03-11T04:30:02.462Z,0.00
2018-03-11T04:31:02.457Z,0.00
2018-03-11T04:32:02.474Z,0.00
2018-03-11T04:33:02.428Z,0.00
2018-03-11T04:34:02.483Z,0.00
2018-03-11T04:35:02.385Z,0.00
2018-03-11T04:36:02.375Z,0.00
2018-03-11T04:37:02.374Z,0.00
2018-03-11T04:38:02.347Z,0.00
2018-03-11T04:39:02.343Z,0.00
2018-03-11T04:40:02.350Z,0.00
2018-03-11T04:41:02.317Z,0.00
2018-03-11T04:42:02.304Z,0.00
2018-03-11T04:43:02.302Z,0.00
2018-03-11T04:44:02.273Z,0.00
2018-03-11T04:45:02.295Z,0.00
2018-03-11T04:46:02.248Z,0.00
2018-03-11T04:47:02.239Z,0.00
2018-03-11T04:48:02.278Z,0.00
2018-03-11T04:49:02.208Z,0.00
2018-03-11T04:50:02.201Z,0.00
2018-03-11T04:51:02.184Z,0.00
2018-03-11T04:52:02.183Z,0.00
2018-03-11T04:53:02.160Z,0.00
2018-03-11T04:54:02.221Z,0.00
2018-03-11T04:55:02.136Z,0.00
2018-03-11T04:56:02.121Z,0.00
2018-03-11T04:57:02.111Z,0.00
2018-03-11T04:58:02.108Z,0.00
2018-03-11T04:59:02.094Z,0.00
2018-03-11T05:00:02.105Z,0.00
2018-03-11T05:01:02.067Z,0.00
2018-03-11T05:02:02.054Z,0.00
2018-03-11T05:03:02.037Z,0.00
2018-03-11T05:04:02.024Z,0.00
2018-03-11T05:05:02.071Z,0.00
2018-03-11T05:06:01.997Z,0.00
2018-03-11T05:07:01.982Z,0.00
2018-03-11T05:08:01.972Z,0.00
2018-03-11T05:09:01.963Z,0.00
2018-03-11T05:10:01.952Z,0.00
2018-03-11T05:11:01.967Z,0.00
2018-03-11T05:12:01.907Z,0.00
2018-03-11T05:13:01.899Z,0.00
2018-03-11T05:14:01.891Z,0.00
2018-03-11T05:15:01.882Z,0.00
2018-03-11T05:16:01.901Z,0.00
2018-03-11T05:17:01.856Z,0.00
2018-03-11T05:18:01.842Z,0.00
2018-03-11T05:19:01.828Z,0.00
2018-03-11T05:20:01.817Z,0.00
2018-03-11T05:21:01.858Z,0.00
2018-03-11T05:22:01.784Z,4.00
2018-03-11T05:23:01.772Z,4.00
2018-03-11T05:24:01.769Z,0.00
2018-03-11T05:25:01.748Z,4.00
2018-03-11T05:26:01.737Z,4.00
2018-03-11T05:27:01.756Z,4.00
2018-03-11T05:28:01.713Z,8.00
2018-03-11T05:29:01.695Z,8.00
2018-03-11T05:30:01.683Z,8.00
2018-03-11T05:31:01.676Z,8.00
2018-03-11T05:32:01.703Z,12.00
2018-03-11T05:33:01.649Z,12.00
2018-03-11T05:34:01.633Z,16.00
2018-03-11T05:35:01.612Z,20.00
2018-03-11T05:36:01.604Z,24.00
2018-03-11T05:37:01.584Z,28.00
2018-03-11T05:38:01.589Z,32.00
2018-03-11T05:39:01.565Z,36.00
2018-03-11T05:40:01.550Z,44.00
2018-03-11T05:41:01.535Z,56.00
2018-03-11T05:42:01.527Z,72.00
2018-03-11T05:43:01.541Z,80.00
2018-03-11T05:44:01.495Z,88.00
2018-03-11T05:45:01.489Z,100.00
2018-03-11T05:46:01.484Z,108.00
2018-03-11T05:47:01.456Z,120.00
2018-03-11T05:48:01.473Z,132.00
2018-03-11T05:49:01.441Z,148.00
2018-03-11T05:50:01.458Z,156.00
2018-03-11T05:51:01.417Z,164.00
2018-03-11T05:52:01.397Z,180.00
2018-03-11T05:53:01.379Z,192.00
2018-03-11T05:54:01.408Z,208.00
2018-03-11T05:55:01.614Z,224.00
2018-03-11T05:56:01.352Z,240.00
2018-03-11T05:57:01.329Z,264.00
2018-03-11T05:58:01.312Z,284.00
2018-03-11T05:59:01.305Z,304.00
2018-03-11T06:00:01.292Z,328.00
2018-03-11T06:01:01.278Z,356.00
2018-03-11T06:02:01.263Z,384.00
2018-03-11T06:03:01.245Z,416.00
2018-03-11T06:04:01.235Z,448.00
2018-03-11T06:05:01.233Z,488.00
2018-03-11T06:06:01.209Z,524.00
2018-03-11T06:07:01.206Z,556.00
2018-03-11T06:08:01.185Z,588.00
2018-03-11T06:09:01.173Z,616.00
2018-03-11T06:10:01.215Z,652.00
2018-03-11T06:11:01.148Z,680.00
2018-03-11T06:12:01.142Z,712.00
2018-03-11T06:13:01.111Z,744.00
2018-03-11T06:14:01.107Z,780.00
2018-03-11T06:15:01.093Z,812.00
2018-03-11T06:16:01.145Z,848.00
2018-03-11T06:17:01.069Z,888.00
2018-03-11T06:18:01.050Z,932.00
2018-03-11T06:19:01.042Z,972.00
2018-03-11T06:20:01.021Z,1016.00
2018-03-11T06:21:01.002Z,1060.00
2018-03-11T06:22:01.050Z,1100.00
2018-03-11T06:23:00.985Z,1132.00
2018-03-11T06:24:00.965Z,1172.00
2018-03-11T06:25:00.967Z,1216.00
2018-03-11T06:26:00.939Z,1252.00
2018-03-11T06:27:00.933Z,1292.00
2018-03-11T06:28:00.924Z,1340.00
2018-03-11T06:29:00.900Z,1388.00
2018-03-11T06:30:00.886Z,1428.00
2018-03-11T06:31:00.872Z,1464.00
2018-03-11T06:32:00.859Z,1512.00
2018-03-11T06:33:00.874Z,1552.00
2018-03-11T06:34:00.831Z,1596.00
2018-03-11T06:35:00.840Z,1656.00
2018-03-11T06:36:00.805Z,1704.00
2018-03-11T06:37:00.799Z,1724.00
2018-03-11T06:38:00.837Z,1728.00
2018-03-11T06:39:00.783Z,1740.00
2018-03-11T06:40:00.750Z,1764.00
2018-03-11T06:41:00.748Z,1804.00
2018-03-11T06:42:00.734Z,1844.00
2018-03-11T06:43:00.722Z,1888.00
2018-03-11T06:44:00.742Z,1948.00
2018-03-11T06:45:00.698Z,2008.00
2018-03-11T06:46:00.671Z,2076.00
2018-03-11T06:47:00.667Z,2152.00
2018-03-11T06:48:00.646Z,2220.00
2018-03-11T06:49:00.640Z,2288.00
2018-03-11T06:50:00.628Z,2356.00
2018-03-11T06:51:00.672Z,2432.00
2018-03-11T06:52:00.598Z,2484.00
2018-03-11T06:53:00.587Z,2488.00
2018-03-11T06:54:00.562Z,2496.00
2018-03-11T06:55:00.574Z,2564.00
2018-03-11T06:56:00.543Z,2616.00
2018-03-11T06:57:00.547Z,2680.00
2018-03-11T06:58:00.510Z,2744.00
2018-03-11T06:59:00.505Z,2748.00
2018-03-11T07:00:00.510Z,2712.00
2018-03-11T07:01:00.484Z,2680.00
2018-03-11T07:02:00.475Z,2656.00
2018-03-11T07:03:00.493Z,2640.00
2018-03-11T07:04:00.452Z,2640.00
2018-03-11T07:05:00.432Z,2652.00
2018-03-11T07:06:00.413Z,2684.00
2018-03-11T07:07:00.420Z,2732.00
2018-03-11T07:08:00.444Z,2756.00
2018-03-11T07:09:00.373Z,2796.00
2018-03-11T07:10:00.371Z,2844.00
2018-03-11T07:11:00.350Z,2880.00
2018-03-11T07:12:00.336Z,2916.00
2018-03-11T07:13:00.330Z,2932.00
2018-03-11T07:14:00.385Z,2956.00
2018-03-11T07:15:00.305Z,2972.00
2018-03-11T07:16:00.286Z,2976.00
2018-03-11T07:17:00.277Z,3004.00
2018-03-11T07:18:00.273Z,3032.00
2018-03-11T07:19:00.272Z,3064.00
2018-03-11T07:20:00.244Z,3128.00
2018-03-11T07:21:00.228Z,3236.00
2018-03-11T07:22:00.216Z,3356.00
2018-03-11T07:23:00.208Z,3432.00
2018-03-11T07:24:00.204Z,3460.00
2018-03-11T07:25:00.175Z,3464.00
2018-03-11T07:26:00.167Z,3580.00
2018-03-11T07:27:00.160Z,3680.00
2018-03-11T07:28:00.135Z,3788.00
2018-03-11T07:29:00.163Z,3848.00
2018-03-11T07:30:00.119Z,3912.00
2018-03-11T07:31:00.107Z,3960.00
2018-03-11T07:32:00.087Z,4028.00
2018-03-11T07:33:00.151Z,4112.00
2018-03-11T07:34:00.061Z,4188.00
2018-03-11T07:35:00.053Z,4248.00
2018-03-11T07:36:00.080Z,4292.00
2018-03-11T07:37:00.034Z,4316.00
2018-03-11T07:38:00.020Z,4312.00
2018-03-11T07:39:00.016Z,4368.00
2018-03-11T07:39:59.996Z,4392.00
2018-03-11T07:40:59.979Z,4412.00
2018-03-11T07:42:00.027Z,4408.00
2018-03-11T07:42:59.964Z,4404.00
2018-03-11T07:43:59.942Z,4400.00
2018-03-11T07:44:59.928Z,4376.00
2018-03-11T07:45:59.922Z,4412.00
2018-03-11T07:46:59.911Z,4460.00
2018-03-11T07:47:59.966Z,4564.00
2018-03-11T07:49:01.444Z,4688.00
2018-03-11T07:49:59.868Z,4800.00
2018-03-11T07:50:59.874Z,4908.00
2018-03-11T07:51:59.862Z,4968.00
2018-03-11T07:52:59.932Z,4988.00
2018-03-11T07:53:59.954Z,4956.00
2018-03-11T07:55:00.536Z,4952.00
2018-03-11T07:55:59.806Z,4964.00
2018-03-11T07:56:59.795Z,4984.00
2018-03-11T07:57:59.782Z,5008.00
2018-03-11T07:58:59.811Z,5044.00
2018-03-11T07:59:59.753Z,5068.00
2018-03-11T08:00:59.748Z,5092.00
2018-03-11T08:01:59.740Z,5064.00
2018-03-11T08:02:59.714Z,5004.00
2018-03-11T08:03:59.742Z,4948.00
2018-03-11T08:04:59.965Z,4920.00
2018-03-11T08:05:59.693Z,4868.00
2018-03-11T08:06:59.672Z,4892.00
2018-03-11T08:07:59.669Z,4984.00
2018-03-11T08:08:59.720Z,5120.00
2018-03-11T08:09:59.644Z,5220.00
2018-03-11T08:10:59.692Z,5396.00
2018-03-11T08:11:59.977Z,5612.00
2018-03-11T08:12:59.615Z,5948.00
2018-03-11T08:13:59.608Z,6372.00
2018-03-11T08:15:00.587Z,6568.00
2018-03-11T08:15:59.577Z,6444.00
2018-03-11T08:16:59.560Z,6428.00
2018-03-11T08:17:59.552Z,6496.00
2018-03-11T08:18:59.534Z,6948.00
2018-03-11T08:19:59.524Z,7152.00
2018-03-11T08:20:59.526Z,7272.00
2018-03-11T08:21:59.502Z,7188.00
2018-03-11T08:22:59.497Z,6824.00
2018-03-11T08:23:59.482Z,6460.00
2018-03-11T08:24:59.484Z,6132.00
2018-03-11T08:25:59.504Z,5820.00
2018-03-11T08:26:59.487Z,5736.00
2018-03-11T08:27:59.448Z,5656.00
2018-03-11T08:28:59.438Z,5384.00
2018-03-11T08:29:59.423Z,5240.00
2018-03-11T08:30:59.428Z,5528.00
2018-03-11T08:31:59.396Z,5576.00
2018-03-11T08:32:59.514Z,5640.00
2018-03-11T08:33:59.385Z,5816.00
2018-03-11T08:34:59.665Z,6168.00
2018-03-11T08:35:59.624Z,6532.00
2018-03-11T08:36:59.348Z,6980.00
2018-03-11T08:37:59.336Z,7396.00
2018-03-11T08:38:59.344Z,7628.00
2018-03-11T08:39:59.326Z,7628.00
2018-03-11T08:40:59.345Z,7484.00
2018-03-11T08:41:59.294Z,7436.00
2018-03-11T08:42:59.297Z,7528.00
2018-03-11T08:43:59.347Z,7656.00
2018-03-11T08:44:59.263Z,7840.00
2018-03-11T08:45:59.264Z,8164.00
2018-03-11T08:46:59.254Z,8324.00
2018-03-11T08:47:59.243Z,8336.00
2018-03-11T08:48:59.233Z,8300.00
2018-03-11T08:49:59.241Z,8244.00
2018-03-11T08:50:59.207Z,8080.00
2018-03-11T08:51:59.202Z,8024.00
2018-03-11T08:52:59.254Z,8048.00
2018-03-11T08:53:59.223Z,8040.00
2018-03-11T08:54:59.218Z,8048.00
2018-03-11T08:55:59.175Z,8012.00
2018-03-11T08:56:59.161Z,7944.00
2018-03-11T08:57:59.149Z,7816.00
2018-03-11T08:58:59.130Z,7640.00
2018-03-11T08:59:59.368Z,7348.00
2018-03-11T09:00:59.117Z,7024.00
2018-03-11T09:01:59.109Z,6392.00
2018-03-11T09:02:59.101Z,6120.00
2018-03-11T09:03:59.154Z,5936.00
2018-03-11T09:04:59.192Z,5868.00
2018-03-11T09:05:59.077Z,5932.00
2018-03-11T09:06:59.053Z,5964.00
2018-03-11T09:07:59.043Z,5920.00
2018-03-11T09:08:59.058Z,5644.00
2018-03-11T09:09:59.072Z,5064.00
2018-03-11T09:10:59.063Z,4492.00
2018-03-11T09:11:59.012Z,4004.00
2018-03-11T09:12:59.033Z,3668.00
2018-03-11T09:13:58.990Z,3460.00
2018-03-11T09:14:58.992Z,3428.00
2018-03-11T09:15:59.016Z,3432.00
2018-03-11T09:16:59.021Z,3592.00
2018-03-11T09:17:58.955Z,3940.00
2018-03-11T09:18:58.951Z,4440.00
2018-03-11T09:19:58.939Z,5020.00
2018-03-11T09:20:58.922Z,4992.00
2018-03-11T09:21:58.947Z,4396.00
2018-03-11T09:22:58.934Z,3636.00
2018-03-11T09:23:59.142Z,3284.00
2018-03-11T09:24:59.029Z,3060.00
2018-03-11T09:25:58.884Z,2816.00
2018-03-11T09:26:58.883Z,2884.00
2018-03-11T09:27:58.914Z,3056.00
2018-03-11T09:28:58.852Z,3148.00
2018-03-11T09:29:58.966Z,3272.00
2018-03-11T09:30:58.887Z,3476.00
2018-03-11T09:31:59.018Z,3740.00
2018-03-11T09:32:59.095Z,3840.00
2018-03-11T09:33:58.970Z,4152.00
2018-03-11T09:35:08.145Z,4760.00
2018-03-11T09:35:58.882Z,5340.00
2018-03-11T09:36:58.846Z,5916.00
2018-03-11T09:37:58.761Z,6056.00
2018-03-11T09:38:58.932Z,5688.00
2018-03-11T09:39:59.093Z,5128.00
2018-03-11T09:40:58.798Z,4768.00
2018-03-11T09:41:58.906Z,4476.00
2018-03-11T09:42:58.720Z,4384.00
2018-03-11T09:43:58.744Z,4456.00
2018-03-11T09:44:59.132Z,4400.00
2018-03-11T09:46:00.774Z,3880.00
2018-03-11T09:47:22.000Z,3188.00
2018-03-11T09:47:58.899Z,2764.00
2018-03-11T09:48:59.052Z,2460.00
2018-03-11T09:49:59.859Z,2268.00
2018-03-11T09:50:58.735Z,2136.00
2018-03-11T09:52:06.040Z,2076.00
2018-03-11T09:52:58.659Z,2052.00
2018-03-11T09:53:58.652Z,1936.00
2018-03-11T09:54:58.611Z,1968.00
2018-03-11T09:55:58.582Z,1936.00
2018-03-11T09:56:58.668Z,1688.00
2018-03-11T09:57:58.573Z,1560.00
2018-03-11T09:58:58.626Z,1596.00
2018-03-11T09:59:58.551Z,1716.00
2018-03-11T10:00:58.542Z,2004.00
2018-03-11T10:01:58.525Z,2116.00
2018-03-11T10:02:58.516Z,2176.00
2018-03-11T10:03:58.508Z,2572.00
2018-03-11T10:04:58.507Z,2956.00
2018-03-11T10:05:58.496Z,3116.00
2018-03-11T10:06:58.475Z,3324.00
2018-03-11T10:07:58.464Z,4152.00
2018-03-11T10:08:58.457Z,5692.00
2018-03-11T10:09:58.473Z,6940.00
2018-03-11T10:10:58.496Z,7084.00
2018-03-11T10:11:58.420Z,6680.00
2018-03-11T10:12:58.415Z,6916.00
2018-03-11T10:13:58.408Z,7724.00
2018-03-11T10:14:58.394Z,8144.00
2018-03-11T10:15:58.378Z,8360.00
2018-03-11T10:16:58.385Z,8764.00
2018-03-11T10:17:58.357Z,8336.00
2018-03-11T10:18:58.357Z,8064.00
2018-03-11T10:19:58.344Z,7312.00
2018-03-11T10:20:58.405Z,6304.00
2018-03-11T10:21:58.325Z,5592.00
2018-03-11T10:22:58.322Z,5392.00
2018-03-11T10:23:58.313Z,5200.00
2018-03-11T10:24:58.301Z,5520.00
2018-03-11T10:25:58.288Z,6132.00
2018-03-11T10:26:58.276Z,6464.00
2018-03-11T10:27:58.268Z,6664.00
2018-03-11T10:28:58.267Z,5924.00
2018-03-11T10:29:58.254Z,5328.00
2018-03-11T10:30:58.274Z,4444.00
2018-03-11T10:31:58.229Z,3600.00
2018-03-11T10:32:58.261Z,3468.00
2018-03-11T10:33:58.211Z,3556.00
2018-03-11T10:34:58.201Z,3704.00
2018-03-11T10:35:58.200Z,3492.00
2018-03-11T10:36:58.183Z,3512.00
2018-03-11T10:37:58.204Z,3708.00
2018-03-11T10:38:58.165Z,3700.00
2018-03-11T10:39:58.151Z,3520.00
2018-03-11T10:40:58.146Z,3256.00
2018-03-11T10:41:58.135Z,3280.00
2018-03-11T10:42:58.156Z,3132.00
2018-03-11T10:43:58.125Z,3128.00
2018-03-11T10:44:58.110Z,2848.00
2018-03-11T10:45:58.100Z,2664.00
2018-03-11T10:46:58.092Z,2660.00
2018-03-11T10:47:58.082Z,2692.00
2018-03-11T10:48:58.096Z,3276.00
2018-03-11T10:49:58.064Z,4192.00
2018-03-11T10:50:58.078Z,4708.00
2018-03-11T10:51:58.045Z,4552.00
2018-03-11T10:52:58.036Z,4656.00
2018-03-11T10:53:58.037Z,5196.00
2018-03-11T10:54:58.065Z,5692.00
2018-03-11T10:55:58.005Z,5100.00
2018-03-11T10:56:57.990Z,4528.00
2018-03-11T10:57:57.996Z,3944.00
2018-03-11T10:58:57.975Z,3512.00
2018-03-11T10:59:57.963Z,3376.00
2018-03-11T11:00:57.969Z,3396.00
2018-03-11T11:01:57.940Z,3488.00
2018-03-11T11:02:57.939Z,3392.00
2018-03-11T11:03:57.924Z,3264.00
2018-03-11T11:04:57.914Z,3064.00
2018-03-11T11:05:57.944Z,3260.00
2018-03-11T11:06:57.930Z,3572.00
2018-03-11T11:07:57.898Z,3884.00
2018-03-11T11:08:57.880Z,4036.00
2018-03-11T11:09:57.870Z,4100.00
2018-03-11T11:10:57.858Z,4204.00
2018-03-11T11:11:57.882Z,4252.00
2018-03-11T11:12:57.892Z,4324.00
2018-03-11T11:13:57.834Z,4164.00
2018-03-11T11:14:57.823Z,4016.00
2018-03-11T11:15:57.815Z,4052.00
2018-03-11T11:16:57.805Z,4052.00
2018-03-11T11:17:57.795Z,4224.00
2018-03-11T11:18:57.811Z,4376.00
2018-03-11T11:19:57.768Z,4228.00
2018-03-11T11:20:57.765Z,4148.00
2018-03-11T11:21:57.761Z,4108.00
2018-03-11T11:22:57.749Z,4020.00
2018-03-11T11:23:57.792Z,3884.00
2018-03-11T11:24:57.717Z,4108.00
2018-03-11T11:25:57.712Z,4616.00
2018-03-11T11:26:57.713Z,5284.00
2018-03-11T11:27:57.692Z,6140.00
2018-03-11T11:28:57.686Z,7024.00
2018-03-11T11:29:57.727Z,7624.00
2018-03-11T11:30:57.681Z,7748.00
2018-03-11T11:31:57.689Z,7468.00
2018-03-11T11:32:58.343Z,7284.00
2018-03-11T11:33:57.636Z,7176.00
2018-03-11T11:34:58.742Z,7312.00
2018-03-11T11:35:57.662Z,7560.00
2018-03-11T11:36:57.639Z,7856.00
2018-03-11T11:37:57.632Z,8048.00
2018-03-11T11:38:57.596Z,8184.00
2018-03-11T11:39:57.596Z,8580.00
2018-03-11T11:40:57.585Z,9012.00
2018-03-11T11:41:57.575Z,9352.00
2018-03-11T11:42:57.629Z,9780.00
2018-03-11T11:43:57.560Z,10376.00
2018-03-11T11:44:58.714Z,11604.00
2018-03-11T11:45:57.541Z,13468.00
2018-03-11T11:46:57.538Z,15712.00
2018-03-11T11:47:57.581Z,17920.00
2018-03-11T11:48:57.518Z,20320.00
2018-03-11T11:49:57.494Z,18624.00
2018-03-11T11:50:57.493Z,18560.00
2018-03-11T11:51:57.487Z,21984.00
2018-03-11T11:52:57.472Z,26240.00
2018-03-11T11:53:57.537Z,19776.00
2018-03-11T11:54:57.464Z,19488.00
2018-03-11T11:55:57.462Z,16896.00
2018-03-11T11:56:57.437Z,16608.00
2018-03-11T11:57:57.430Z,16960.00
2018-03-11T11:58:57.426Z,23200.00
2018-03-11T11:59:57.455Z,19424.00
2018-03-11T12:00:57.427Z,32256.00
2018-03-11T12:01:57.402Z,26624.00
2018-03-11T12:02:57.413Z,32864.00
2018-03-11T12:03:57.395Z,36128.00
2018-03-11T12:04:57.383Z,19104.00
2018-03-11T12:05:57.396Z,21120.00
2018-03-11T12:06:57.384Z,17024.00
2018-03-11T12:07:57.394Z,26816.00
2018-03-11T12:08:57.370Z,25888.00
2018-03-11T12:09:57.355Z,18944.00
2018-03-11T12:10:57.355Z,28320.00
2018-03-11T12:11:57.340Z,21856.00
2018-03-11T12:12:57.397Z,21920.00
2018-03-11T12:13:57.340Z,29376.00
2018-03-11T12:14:57.389Z,19168.00
2018-03-11T12:15:57.341Z,17600.00
2018-03-11T12:16:57.327Z,18112.00
2018-03-11T12:17:57.322Z,16448.00
2018-03-11T12:18:57.377Z,15488.00
2018-03-11T12:19:57.300Z,14520.00
2018-03-11T12:20:57.303Z,13756.00
2018-03-11T12:21:57.306Z,13068.00
2018-03-11T12:22:57.298Z,12660.00
2018-03-11T12:23:57.290Z,13008.00
2018-03-11T12:24:57.323Z,14100.00
2018-03-11T12:25:57.332Z,15520.00
2018-03-11T12:26:57.265Z,14612.00
2018-03-11T12:27:57.307Z,15044.00
2018-03-11T12:28:57.262Z,15552.00
2018-03-11T12:29:57.255Z,16224.00
2018-03-11T12:30:57.242Z,16832.00
2018-03-11T12:31:57.243Z,17120.00
2018-03-11T12:32:57.250Z,16864.00
2018-03-11T12:33:57.302Z,16352.00
2018-03-11T12:34:57.236Z,15936.00
2018-03-11T12:35:57.224Z,14740.00